McAlister, NM (88427)

1:12 PM MDT on September 03, 2015 (GMT -0600)
Tucumcari Municipal | | Change Station
CLOSE
Current Station
Airport
Location: Tucumcari,
Elevation: 4065 ft
Nearby Weather Stations

Elev 4065 ft 35.18 °N, 103.60 °W | Updated 19 minutes ago

Clear
Clear
93 °F
Feels Like 93 °F
N
15
Wind Variable Wind from WSW
Gusts 21 mph

Today
High -- | Low -- °F
--% Chance of Precip.
Yesterday
High -- | Low -- °F
Precip. -- in
6:28 AM 7:18 PM
Waning Gibbous, 68% visible
Pressure 29.76 in
Visibility 10.0 miles
Clouds Clear
Dew Point 46 °F
Humidity 20%
Rainfall 0.00 in
Snow Depth Not available.
UV 11 out of 12
Pollen 9.30 out of 12
Air Quality Not available.
Flu Activity Not available.
METAR KTCC 031853Z AUTO 25013G18KT 10SM CLR 34/08 A2998 RMK AO2 SLP078 T03390078
Pressure 29.76 in
Visibility 10.0 miles
Clouds Clear
Dew Point 46 °F
Humidity 20%
Rainfall 0.00 in
Snow Depth Not available.
UV 11 out of 12
Pollen 9.30 out of 12
Air Quality Not available.
Flu Activity Not available.
METAR KTCC 031853Z AUTO 25013G18KT 10SM CLR 34/08 A2998 RMK AO2 SLP078 T03390078

10-Day Weather Forecast

×

Almanac

Astronomy

Sep. 03, 2015 Rise Set
Actual Time
Civil Twilight
Nautical Twilight
Astronomical Twilight
Moon
Length of Visible Light
Length of Day
Tomorrow will be .
, % of the Moon is Illuminated

Today's Extremes

State Highs State Lows

Community

WunderPhotos

Upload Photos

1,852,014 photos uploaded!

WunderBlogs® & News

Nearby

Air Quality

  Air Quality AQ Index Pollutant
Not available.

Snow Depth

Station Depth Elevation

Earthquake Activity

City Distance Mag. Time & Date
Minimum magnitude displayed is 2.5.

Coastal Water Temperatures

Place Temperature

Stations

Nearby Weather Stations

Station Location Temp. Windchill Dew Point Humidity Wind Precip. Elev Updated Type